createdAt,value
2023-06-16T00:00:49.611Z,13.86
2023-06-16T00:03:18.643Z,13.66
2023-06-16T00:05:47.471Z,13.72
2023-06-16T00:08:17.829Z,13.98
2023-06-16T00:10:46.169Z,13.85
2023-06-16T00:13:14.440Z,13.77
2023-06-16T00:15:42.700Z,13.66
2023-06-16T00:18:11.350Z,13.72
2023-06-16T00:20:39.641Z,13.60
2023-06-16T00:23:09.702Z,13.54
2023-06-16T00:25:39.502Z,13.63
2023-06-16T00:28:07.763Z,13.61
2023-06-16T00:30:35.976Z,13.58
2023-06-16T00:33:04.451Z,13.68
2023-06-16T00:35:33.198Z,13.74
2023-06-16T00:38:01.459Z,13.72
2023-06-16T00:40:30.123Z,13.63
2023-06-16T00:43:03.031Z,12.74
2023-06-16T00:45:31.555Z,13.06
2023-06-16T00:48:01.611Z,13.46
2023-06-16T00:50:30.278Z,13.32
2023-06-16T00:52:59.369Z,13.46
2023-06-16T00:55:27.849Z,13.25
2023-06-16T00:57:56.205Z,13.29
2023-06-16T01:00:27.064Z,13.32
2023-06-16T01:02:58.111Z,13.29
2023-06-16T01:05:28.457Z,13.15
2023-06-16T01:08:12.550Z,13.09
2023-06-16T01:10:55.126Z,13.15
2023-06-16T01:13:33.467Z,13.13
2023-06-16T01:16:05.326Z,13.06
2023-06-16T01:18:35.279Z,13.18
2023-06-16T01:21:17.603Z,13.11
2023-06-16T01:24:04.308Z,13.03
2023-06-16T01:26:33.898Z,13.02
2023-06-16T01:29:06.875Z,12.88
2023-06-16T01:31:37.566Z,12.99
2023-06-16T01:34:09.961Z,13.10
2023-06-16T01:36:41.939Z,13.13
2023-06-16T01:39:12.661Z,13.32
2023-06-16T01:41:41.894Z,13.19
2023-06-16T01:44:11.094Z,13.35
2023-06-16T01:46:40.298Z,13.32
2023-06-16T01:49:09.650Z,13.08
2023-06-16T01:51:38.526Z,12.86
2023-06-16T01:54:08.613Z,13.14
2023-06-16T01:56:38.329Z,12.94
2023-06-16T01:59:06.894Z,12.76
2023-06-16T02:01:42.646Z,12.72
2023-06-16T02:04:16.827Z,12.78
2023-06-16T02:06:49.854Z,12.73
2023-06-16T02:09:24.491Z,12.59
2023-06-16T02:11:55.535Z,12.54
2023-06-16T02:14:24.187Z,12.46
2023-06-16T02:16:53.600Z,12.44
2023-06-16T02:19:22.323Z,12.43
2023-06-16T02:21:50.579Z,12.43
2023-06-16T02:24:20.077Z,12.35
2023-06-16T02:26:50.356Z,12.37
2023-06-16T02:29:21.706Z,12.22
2023-06-16T02:31:51.107Z,12.23
2023-06-16T02:34:20.066Z,12.27
2023-06-16T02:36:51.496Z,12.08
2023-06-16T02:39:22.934Z,12.09
2023-06-16T02:41:51.484Z,12.12
2023-06-16T02:44:22.181Z,12.17
2023-06-16T02:46:50.498Z,12.21
2023-06-16T02:49:20.305Z,12.13
2023-06-16T02:51:48.700Z,12.16
2023-06-16T02:54:17.002Z,12.19
2023-06-16T02:56:45.373Z,11.99
2023-06-16T02:59:14.132Z,11.86
2023-06-16T03:01:43.777Z,11.89
2023-06-16T03:04:26.989Z,11.76
2023-06-16T03:06:59.817Z,11.76
2023-06-16T03:09:33.638Z,11.74
2023-06-16T03:12:02.547Z,11.76
2023-06-16T03:14:34.141Z,11.71
2023-06-16T03:17:15.019Z,11.54
2023-06-16T03:19:44.492Z,11.56
2023-06-16T03:22:15.134Z,11.58
2023-06-16T03:24:45.980Z,10.96
2023-06-16T03:27:16.549Z,11.57
2023-06-16T03:29:52.145Z,11.58
2023-06-16T03:32:22.587Z,11.48
2023-06-16T03:34:51.194Z,11.43
2023-06-16T03:37:22.008Z,11.44
2023-06-16T03:39:50.334Z,11.49
2023-06-16T03:42:18.699Z,11.54
2023-06-16T03:44:48.463Z,11.53
2023-06-16T03:47:17.469Z,11.55
2023-06-16T03:49:47.293Z,11.54
2023-06-16T03:52:15.596Z,11.80
2023-06-16T03:54:43.908Z,11.56
2023-06-16T03:57:12.265Z,11.62
2023-06-16T03:59:41.331Z,11.69
2023-06-16T04:02:09.694Z,11.63
2023-06-16T04:04:48.596Z,11.60
2023-06-16T04:07:23.781Z,11.63
2023-06-16T04:09:54.038Z,11.53
2023-06-16T04:12:22.739Z,11.39
2023-06-16T04:14:51.031Z,11.74
2023-06-16T04:17:20.407Z,11.77
2023-06-16T04:19:50.504Z,11.82
2023-06-16T04:22:18.820Z,11.89
2023-06-16T04:24:51.964Z,11.91
2023-06-16T04:27:24.531Z,11.98
2023-06-16T04:29:54.118Z,12.00
2023-06-16T04:32:22.640Z,12.19
2023-06-16T04:34:55.648Z,12.19
2023-06-16T04:37:25.155Z,12.38
2023-06-16T04:39:53.385Z,12.35
2023-06-16T04:42:24.644Z,12.47
2023-06-16T04:44:53.453Z,12.56
2023-06-16T04:47:23.677Z,12.67
2023-06-16T04:49:53.938Z,12.87
2023-06-16T04:52:22.827Z,13.02
2023-06-16T04:54:51.158Z,13.12
2023-06-16T04:57:19.521Z,13.18
2023-06-16T04:59:47.944Z,13.38
2023-06-16T05:02:16.643Z,13.38
2023-06-16T05:04:45.233Z,13.47
2023-06-16T05:07:17.225Z,13.65
2023-06-16T05:09:49.319Z,13.82
2023-06-16T05:12:17.601Z,13.73
2023-06-16T05:14:46.607Z,13.83
2023-06-16T05:17:15.626Z,13.95
2023-06-16T05:19:44.431Z,13.99
2023-06-16T05:22:12.791Z,14.16
2023-06-16T05:24:42.944Z,14.39
2023-06-16T05:27:11.664Z,14.40
2023-06-16T05:29:39.970Z,14.48
2023-06-16T05:32:08.758Z,14.53
2023-06-16T05:34:37.541Z,15.30
2023-06-16T05:37:07.499Z,14.67
2023-06-16T05:39:36.251Z,14.88
2023-06-16T05:42:06.860Z,14.94
2023-06-16T05:44:35.163Z,15.01
2023-06-16T05:47:03.719Z,15.10
2023-06-16T05:49:32.036Z,15.23
2023-06-16T05:52:03.002Z,15.37
2023-06-16T05:54:31.348Z,15.43
2023-06-16T05:57:01.377Z,15.65
2023-06-16T05:59:32.167Z,15.74
2023-06-16T06:02:00.507Z,15.90
2023-06-16T06:04:54.787Z,16.11
2023-06-16T06:07:24.500Z,16.19
2023-06-16T06:09:53.014Z,16.25
2023-06-16T06:12:22.265Z,16.48
2023-06-16T06:14:52.087Z,16.70
2023-06-16T06:17:21.006Z,16.76
2023-06-16T06:19:50.802Z,16.87
2023-06-16T06:22:19.126Z,17.01
2023-06-16T06:24:48.619Z,17.11
2023-06-16T06:27:18.036Z,17.12
2023-06-16T06:29:46.342Z,17.33
2023-06-16T06:32:16.175Z,17.43
2023-06-16T06:34:44.447Z,17.53
2023-06-16T06:37:17.465Z,17.70
2023-06-16T06:39:46.603Z,18.01
2023-06-16T06:42:16.275Z,18.10
2023-06-16T06:44:57.272Z,18.17
2023-06-16T06:47:27.871Z,18.26
2023-06-16T06:50:03.370Z,18.38
2023-06-16T06:52:31.702Z,18.45
2023-06-16T06:54:59.949Z,18.57
2023-06-16T06:57:28.247Z,18.82
2023-06-16T06:59:56.484Z,18.65
2023-06-16T07:02:25.496Z,18.53
2023-06-16T07:04:55.542Z,18.98
2023-06-16T07:07:23.775Z,18.88
2023-06-16T07:09:52.100Z,18.86
2023-06-16T07:12:20.394Z,19.07
2023-06-16T07:14:50.382Z,19.33
2023-06-16T07:17:21.211Z,19.59
2023-06-16T07:19:49.448Z,19.57
2023-06-16T07:22:20.197Z,19.52
2023-06-16T07:24:48.411Z,19.39
2023-06-16T07:27:16.726Z,19.36
2023-06-16T07:29:44.952Z,19.29
2023-06-16T07:32:13.163Z,19.37
2023-06-16T07:34:42.921Z,19.48
2023-06-16T07:37:11.233Z,19.60
2023-06-16T07:39:41.100Z,19.69
2023-06-16T07:42:09.691Z,19.73
2023-06-16T07:44:37.999Z,20.00
2023-06-16T07:47:09.668Z,20.27
2023-06-16T07:49:39.485Z,20.34
2023-06-16T07:52:10.664Z,20.61
2023-06-16T07:54:42.035Z,20.64
2023-06-16T07:57:10.467Z,20.69
2023-06-16T07:59:38.747Z,20.79
2023-06-16T08:02:13.151Z,20.77
2023-06-16T08:07:33.607Z,21.02
2023-06-16T08:10:03.956Z,21.17
2023-06-16T08:12:33.353Z,21.17
2023-06-16T08:15:01.715Z,21.14
2023-06-16T08:17:30.067Z,21.20
2023-06-16T08:19:58.336Z,21.34
2023-06-16T08:22:26.813Z,21.45
2023-06-16T08:24:55.152Z,21.62
2023-06-16T08:27:26.185Z,21.32
2023-06-16T08:29:55.007Z,21.19
2023-06-16T08:32:23.925Z,21.33
2023-06-16T08:34:52.396Z,21.38
2023-06-16T08:37:28.760Z,21.36
2023-06-16T08:39:57.762Z,21.65
2023-06-16T08:42:27.647Z,21.78
2023-06-16T08:44:56.453Z,21.92
2023-06-16T08:47:25.187Z,21.94
2023-06-16T08:49:55.865Z,22.19
2023-06-16T08:52:38.825Z,22.33
2023-06-16T08:55:14.809Z,21.97
2023-06-16T08:57:49.171Z,22.02
2023-06-16T09:00:20.059Z,22.27
2023-06-16T09:02:51.695Z,22.17
2023-06-16T09:05:21.841Z,22.21
2023-06-16T09:07:52.338Z,22.26
2023-06-16T09:10:21.580Z,22.51
2023-06-16T09:12:55.369Z,22.52
2023-06-16T09:15:25.659Z,22.48
2023-06-16T09:17:54.066Z,22.69
2023-06-16T09:20:25.008Z,22.74
2023-06-16T09:23:00.698Z,22.88
2023-06-16T09:25:33.433Z,22.92
2023-06-16T09:28:09.206Z,22.86
2023-06-16T09:30:40.204Z,22.80
2023-06-16T09:33:12.400Z,22.76
2023-06-16T09:35:44.332Z,23.10
2023-06-16T09:38:13.069Z,22.99
2023-06-16T09:40:41.570Z,22.94
2023-06-16T09:43:12.723Z,23.17
2023-06-16T09:45:41.076Z,22.87
2023-06-16T09:48:13.634Z,22.95
2023-06-16T09:50:42.691Z,23.05
2023-06-16T09:53:11.910Z,23.40
2023-06-16T09:55:42.470Z,23.37
2023-06-16T09:58:12.170Z,23.73
2023-06-16T10:00:40.658Z,23.71
2023-06-16T10:03:11.204Z,23.61
2023-06-16T10:05:42.476Z,23.06
2023-06-16T10:08:13.606Z,23.08
2023-06-16T10:10:45.197Z,22.88
2023-06-16T10:13:17.159Z,23.00
2023-06-16T10:15:47.940Z,23.04
2023-06-16T10:18:19.031Z,22.66
2023-06-16T10:20:48.418Z,22.42
2023-06-16T10:23:17.394Z,22.18
2023-06-16T10:25:46.996Z,22.73
2023-06-16T10:28:17.193Z,23.30
2023-06-16T10:30:46.143Z,23.17
2023-06-16T10:33:19.370Z,22.94
2023-06-16T10:36:11.583Z,22.23
2023-06-16T10:38:43.858Z,23.02
2023-06-16T10:41:16.243Z,23.32
2023-06-16T10:43:46.260Z,22.92
2023-06-16T10:46:15.985Z,22.61
2023-06-16T10:49:13.295Z,22.94
2023-06-16T10:51:50.802Z,22.84
2023-06-16T10:54:37.413Z,22.77
2023-06-16T10:57:14.720Z,23.21
2023-06-16T10:59:59.070Z,23.54
2023-06-16T11:02:29.155Z,23.56
2023-06-16T11:05:15.107Z,23.54
2023-06-16T11:07:44.527Z,23.34
2023-06-16T11:10:18.654Z,23.60
2023-06-16T11:12:47.551Z,23.01
2023-06-16T11:15:17.294Z,23.13
2023-06-16T11:17:46.099Z,23.00
2023-06-16T11:20:15.581Z,22.99
2023-06-16T11:22:44.976Z,22.84
2023-06-16T11:25:14.273Z,22.66
2023-06-16T11:27:42.728Z,22.49
2023-06-16T11:30:13.085Z,22.27
2023-06-16T11:32:43.712Z,22.30
2023-06-16T11:35:12.421Z,22.39
2023-06-16T11:37:50.126Z,22.68
2023-06-16T11:40:22.407Z,23.26
2023-06-16T11:42:59.026Z,22.95
2023-06-16T11:45:29.755Z,22.79
2023-06-16T11:48:02.089Z,22.98
2023-06-16T11:50:30.740Z,22.93
2023-06-16T11:52:59.790Z,22.91
2023-06-16T11:55:29.970Z,22.54
2023-06-16T11:57:59.850Z,22.56
2023-06-16T12:00:29.055Z,22.44
2023-06-16T12:02:59.087Z,22.55
2023-06-16T12:05:29.587Z,22.62
2023-06-16T12:07:58.093Z,22.51
2023-06-16T12:10:27.445Z,22.53
2023-06-16T12:12:56.371Z,22.71
2023-06-16T12:15:25.550Z,22.59
2023-06-16T12:17:58.968Z,22.79
2023-06-16T12:20:27.485Z,22.91
2023-06-16T12:22:58.813Z,23.19
2023-06-16T12:25:28.266Z,23.74
2023-06-16T12:28:00.214Z,23.86
2023-06-16T12:30:37.782Z,23.54
2023-06-16T12:33:11.364Z,23.52
2023-06-16T12:35:39.901Z,23.22
2023-06-16T12:38:08.279Z,23.22
2023-06-16T12:40:37.066Z,22.97
2023-06-16T12:43:24.911Z,22.99
2023-06-16T12:45:53.783Z,23.02
2023-06-16T12:48:23.583Z,23.01
2023-06-16T12:50:51.988Z,23.08
2023-06-16T12:53:20.285Z,23.19
2023-06-16T12:55:48.553Z,23.50
2023-06-16T12:58:16.813Z,23.82
2023-06-16T13:00:45.096Z,23.80
2023-06-16T13:03:15.709Z,23.84
2023-06-16T13:05:45.824Z,23.46
2023-06-16T13:08:14.467Z,23.15
2023-06-16T13:10:42.671Z,23.12
2023-06-16T13:13:10.945Z,23.11
2023-06-16T13:15:39.245Z,23.00
2023-06-16T13:18:08.451Z,23.06
2023-06-16T13:20:40.542Z,23.10
2023-06-16T13:23:10.188Z,22.95
2023-06-16T13:25:38.453Z,23.10
2023-06-16T13:28:07.176Z,23.20
2023-06-16T13:30:36.064Z,23.81
2023-06-16T13:33:05.000Z,23.94
2023-06-16T13:35:33.313Z,24.47
2023-06-16T13:38:01.676Z,24.82
2023-06-16T13:40:31.311Z,24.76
2023-06-16T13:43:00.995Z,24.31
2023-06-16T13:45:34.857Z,23.81
2023-06-16T13:48:03.146Z,23.82
2023-06-16T13:50:31.446Z,24.00
2023-06-16T13:52:59.723Z,24.69
2023-06-16T13:55:28.041Z,24.87
2023-06-16T13:57:58.224Z,25.14
2023-06-16T14:00:26.519Z,25.48
2023-06-16T14:02:56.151Z,25.43
2023-06-16T14:05:24.923Z,25.11
2023-06-16T14:07:53.521Z,25.15
2023-06-16T14:10:22.169Z,25.15
2023-06-16T14:12:50.596Z,25.26
2023-06-16T14:15:20.729Z,25.51
2023-06-16T14:17:49.673Z,25.51
2023-06-16T14:20:18.909Z,25.38
2023-06-16T14:22:47.955Z,25.37
2023-06-16T14:25:16.596Z,25.37
2023-06-16T14:27:45.706Z,25.01
2023-06-16T14:30:14.747Z,25.18
2023-06-16T14:32:44.435Z,25.28
2023-06-16T14:35:12.974Z,24.90
2023-06-16T14:37:41.223Z,24.76
2023-06-16T14:40:10.887Z,24.59
2023-06-16T14:42:39.415Z,24.43
2023-06-16T14:45:10.619Z,24.79
2023-06-16T14:47:39.485Z,24.13
2023-06-16T14:50:11.005Z,24.27
2023-06-16T14:52:39.300Z,24.20
2023-06-16T14:55:08.406Z,24.00
2023-06-16T14:57:36.761Z,23.92
2023-06-16T15:00:07.131Z,23.94
2023-06-16T15:02:35.926Z,23.92
2023-06-16T15:05:04.523Z,23.95
2023-06-16T15:07:34.252Z,24.11
2023-06-16T15:10:02.514Z,23.83
2023-06-16T15:12:30.982Z,24.00
2023-06-16T15:14:59.272Z,23.91
2023-06-16T15:17:27.506Z,24.01
2023-06-16T15:19:55.852Z,23.67
2023-06-16T15:22:24.104Z,23.69
2023-06-16T15:24:53.774Z,23.59
2023-06-16T15:27:21.997Z,23.46
2023-06-16T15:29:50.238Z,23.27
2023-06-16T15:32:18.550Z,23.34
2023-06-16T15:34:46.808Z,23.36
2023-06-16T15:37:15.169Z,22.80
2023-06-16T15:39:43.395Z,23.46
2023-06-16T15:42:13.155Z,23.16
2023-06-16T15:44:42.038Z,23.14
2023-06-16T15:47:10.464Z,23.22
2023-06-16T15:49:38.738Z,23.14
2023-06-16T15:52:08.774Z,23.32
2023-06-16T15:54:37.024Z,23.30
2023-06-16T15:57:08.485Z,23.29
2023-06-16T15:59:38.990Z,23.44
2023-06-16T16:02:09.187Z,23.42
2023-06-16T16:04:43.639Z,23.55
2023-06-16T16:07:12.436Z,23.65
2023-06-16T16:09:40.835Z,23.50
2023-06-16T16:12:11.592Z,23.26
2023-06-16T16:14:41.676Z,23.32
2023-06-16T16:17:10.029Z,23.28
2023-06-16T16:19:38.307Z,23.19
2023-06-16T16:22:07.940Z,23.09
2023-06-16T16:24:36.282Z,23.08
2023-06-16T16:27:07.025Z,23.17
2023-06-16T16:29:40.769Z,23.34
2023-06-16T16:32:09.539Z,23.24
2023-06-16T16:34:37.883Z,23.17
2023-06-16T16:37:07.000Z,23.07
2023-06-16T16:39:35.784Z,22.93
2023-06-16T16:42:04.607Z,23.10
2023-06-16T16:44:33.097Z,22.90
2023-06-16T16:47:04.315Z,22.78
2023-06-16T16:49:32.775Z,22.61
2023-06-16T16:52:01.651Z,22.74
2023-06-16T16:54:29.896Z,22.79
2023-06-16T16:56:58.128Z,22.82
2023-06-16T16:59:27.106Z,22.79
2023-06-16T17:01:55.500Z,22.57
2023-06-16T17:04:25.295Z,22.37
2023-06-16T17:06:54.270Z,22.43
2023-06-16T17:09:22.544Z,22.40
2023-06-16T17:11:50.878Z,22.57
2023-06-16T17:14:19.016Z,22.46
2023-06-16T17:16:47.270Z,22.72
2023-06-16T17:19:15.444Z,22.76
2023-06-16T17:21:45.048Z,22.93
2023-06-16T17:24:13.378Z,23.04
2023-06-16T17:26:41.996Z,22.93
2023-06-16T17:29:10.297Z,22.82
2023-06-16T17:31:38.636Z,22.76
2023-06-16T17:34:06.915Z,22.94
2023-06-16T17:36:35.199Z,22.83
2023-06-16T17:39:05.293Z,22.91
2023-06-16T17:41:36.130Z,22.94
2023-06-16T17:44:05.569Z,22.97
2023-06-16T17:46:36.177Z,22.98
2023-06-16T17:49:05.636Z,22.70
2023-06-16T17:54:06.462Z,22.71
2023-06-16T17:59:03.278Z,22.61
2023-06-16T18:01:32.147Z,22.68
2023-06-16T18:06:55.643Z,22.61
2023-06-16T18:09:25.227Z,22.53
2023-06-16T18:11:53.602Z,22.32
2023-06-16T18:14:21.847Z,22.43
2023-06-16T18:16:50.150Z,22.45
2023-06-16T18:19:18.468Z,22.53
2023-06-16T18:21:46.875Z,22.66
2023-06-16T18:24:15.313Z,22.77
2023-06-16T18:26:45.110Z,22.84
2023-06-16T18:29:13.439Z,22.88
2023-06-16T18:31:42.534Z,22.78
2023-06-16T18:34:11.367Z,22.77
2023-06-16T18:36:42.297Z,22.67
2023-06-16T18:39:14.331Z,22.45
2023-06-16T18:41:48.371Z,22.17
2023-06-16T18:44:18.118Z,22.30
2023-06-16T18:46:46.938Z,22.05
2023-06-16T18:49:15.224Z,22.01
2023-06-16T18:51:43.526Z,21.82
2023-06-16T18:54:11.875Z,21.80
2023-06-16T18:56:40.470Z,21.56
2023-06-16T18:59:10.010Z,21.70
2023-06-16T19:01:39.234Z,21.38
2023-06-16T19:04:07.715Z,21.32
2023-06-16T19:06:38.072Z,21.21
2023-06-16T19:09:06.362Z,20.98
2023-06-16T19:11:34.637Z,21.00
2023-06-16T19:14:02.892Z,20.92
2023-06-16T19:16:32.697Z,20.65
2023-06-16T19:19:01.496Z,20.46
2023-06-16T19:21:29.764Z,20.48
2023-06-16T19:23:58.014Z,19.48
2023-06-16T19:26:26.278Z,20.06
2023-06-16T19:28:54.605Z,19.96
2023-06-16T19:31:24.640Z,19.84
2023-06-16T19:33:55.234Z,19.73
2023-06-16T19:36:23.815Z,19.78
2023-06-16T19:38:53.606Z,19.03
2023-06-16T19:41:25.425Z,19.63
2023-06-16T19:43:53.662Z,19.51
2023-06-16T19:46:22.193Z,19.57
2023-06-16T19:48:51.781Z,19.56
2023-06-16T19:51:21.537Z,19.38
2023-06-16T19:53:49.765Z,19.34
2023-06-16T19:56:18.295Z,19.26
2023-06-16T19:58:46.572Z,19.47
2023-06-16T20:01:40.824Z,19.19
2023-06-16T20:04:23.472Z,19.08
2023-06-16T20:06:57.080Z,19.06
2023-06-16T20:09:26.155Z,18.94
2023-06-16T20:11:55.211Z,18.99
2023-06-16T20:14:23.579Z,18.79
2023-06-16T20:16:51.956Z,18.72
2023-06-16T20:19:21.814Z,18.65
2023-06-16T20:21:50.239Z,18.64
2023-06-16T20:24:19.959Z,18.64
2023-06-16T20:26:48.587Z,18.46
2023-06-16T20:29:16.859Z,18.55
2023-06-16T20:31:45.093Z,18.29
2023-06-16T20:34:13.341Z,18.16
2023-06-16T20:36:46.062Z,18.12
2023-06-16T20:39:14.943Z,18.28
2023-06-16T20:41:44.598Z,18.32
2023-06-16T20:44:13.794Z,18.24
2023-06-16T20:46:43.699Z,18.28
2023-06-16T20:49:12.126Z,18.31
2023-06-16T20:51:41.326Z,18.39
2023-06-16T20:54:09.617Z,18.47
2023-06-16T20:56:37.875Z,18.31
2023-06-16T20:59:08.596Z,18.25
2023-06-16T21:01:41.198Z,18.11
2023-06-16T21:04:12.655Z,18.03
2023-06-16T21:06:41.709Z,17.90
2023-06-16T21:09:10.753Z,16.96
2023-06-16T21:11:40.099Z,17.76
2023-06-16T21:14:10.723Z,17.71
2023-06-16T21:16:39.981Z,17.70
2023-06-16T21:19:08.283Z,17.60
2023-06-16T21:21:36.535Z,17.62
2023-06-16T21:24:07.126Z,17.45
2023-06-16T21:26:36.111Z,17.28
2023-06-16T21:29:04.528Z,17.26
2023-06-16T21:31:34.091Z,17.34
2023-06-16T21:34:02.402Z,17.15
2023-06-16T21:36:30.670Z,17.14
2023-06-16T21:38:59.459Z,17.18
2023-06-16T21:41:28.094Z,16.92
2023-06-16T21:43:56.348Z,16.97
2023-06-16T21:46:25.074Z,16.88
2023-06-16T21:48:54.619Z,16.90
2023-06-16T21:51:23.118Z,16.68
2023-06-16T21:53:51.404Z,16.68
2023-06-16T21:56:20.261Z,16.57
2023-06-16T21:58:48.502Z,16.60
2023-06-16T22:01:16.817Z,16.57
2023-06-16T22:04:12.278Z,16.47
2023-06-16T22:06:42.696Z,16.48
2023-06-16T22:09:11.512Z,16.30
2023-06-16T22:11:40.063Z,16.21
2023-06-16T22:14:08.915Z,16.09
2023-06-16T22:16:37.445Z,16.13
2023-06-16T22:19:05.768Z,16.02
2023-06-16T22:21:35.432Z,15.93
2023-06-16T22:24:03.802Z,15.92
2023-06-16T22:26:33.688Z,15.84
2023-06-16T22:29:01.978Z,15.79
2023-06-16T22:31:30.246Z,15.77
2023-06-16T22:33:58.494Z,15.70
2023-06-16T22:36:26.712Z,15.52
2023-06-16T22:38:56.549Z,15.42
2023-06-16T22:41:24.817Z,15.29
2023-06-16T22:43:54.140Z,15.27
2023-06-16T22:46:22.675Z,15.38
2023-06-16T22:48:52.061Z,15.22
2023-06-16T22:51:20.452Z,15.11
2023-06-16T22:53:48.770Z,15.12
2023-06-16T22:56:18.883Z,15.04
2023-06-16T22:58:47.157Z,14.91
2023-06-16T23:01:15.984Z,14.88
2023-06-16T23:03:44.344Z,14.68
2023-06-16T23:06:12.613Z,14.79
2023-06-16T23:08:40.998Z,14.62
2023-06-16T23:11:09.226Z,14.84
2023-06-16T23:13:38.855Z,14.74
2023-06-16T23:16:07.862Z,14.64
2023-06-16T23:18:36.634Z,14.58
2023-06-16T23:21:05.083Z,13.71
2023-06-16T23:23:33.311Z,14.61
2023-06-16T23:26:02.860Z,14.73
2023-06-16T23:28:31.130Z,14.83
2023-06-16T23:31:02.260Z,15.00
2023-06-16T23:33:30.787Z,14.83
2023-06-16T23:35:59.402Z,14.87
2023-06-16T23:38:27.636Z,14.79
2023-06-16T23:40:56.018Z,14.64
2023-06-16T23:43:24.516Z,14.63
2023-06-16T23:45:54.011Z,14.48
2023-06-16T23:48:23.876Z,14.16
2023-06-16T23:50:52.154Z,14.15
2023-06-16T23:53:21.887Z,13.95
2023-06-16T23:55:50.262Z,13.98
2023-06-16T23:58:18.475Z,14.00
